Time;durP1;ratioP1;P1;durP2;ratioP2;P2;SDS_P1;SDS_P2;PMS_P1;PMS_P2;Temp;Humidity;BMP_temperature;BMP_pressure;BME280_temperature;BME280_humidity;BME280_pressure;Samples;Min_cycle;Max_cycle;Signal;HPM_P1;HPM_P2
2023/09/06 00:02:07;;;;;;;6.80;3.20;;;;;;;23.56;39.86;101042.96;108022;1286;21986;-70
2023/09/06 00:04:33;;;;;;;4.80;3.10;;;;;;;23.54;39.89;101044.89;108002;1284;21999;-57
2023/09/06 00:06:59;;;;;;;5.30;3.20;;;;;;;23.52;39.96;101047.89;108060;1288;21986;-69
2023/09/06 00:09:25;;;;;;;5.90;3.00;;;;;;;23.51;39.93;101046.27;108025;1288;21998;-58
2023/09/06 00:11:50;;;;;;;5.10;3.00;;;;;;;23.49;39.94;101044.77;107984;1279;22043;-69
2023/09/06 00:14:16;;;;;;;3.90;2.60;;;;;;;23.62;39.87;101045.00;107996;1288;21992;-69
2023/09/06 00:16:46;;;;;;;9.00;3.00;;;;;;;23.66;39.71;101043.30;108006;1283;22454;-69
2023/09/06 00:19:14;;;;;;;6.50;2.80;;;;;;;23.66;39.58;101045.25;108004;1287;21986;-58
2023/09/06 00:21:42;;;;;;;5.70;2.80;;;;;;;23.65;39.84;101046.77;108097;1288;23641;-70
2023/09/06 00:24:12;;;;;;;6.20;3.10;;;;;;;23.63;39.86;101050.11;108045;1283;23720;-80
2023/09/06 00:26:40;;;;;;;7.10;3.20;;;;;;;23.61;39.72;101052.20;108082;1288;21992;-83
2023/09/06 00:29:09;;;;;;;5.40;2.90;;;;;;;23.60;39.87;101051.71;107867;1288;21997;-69
2023/09/06 00:31:35;;;;;;;6.00;2.90;;;;;;;23.59;39.89;101053.00;107998;1286;22024;-68
2023/09/06 00:34:01;;;;;;;5.50;2.60;;;;;;;23.58;40.07;101051.48;108016;1280;21992;-57
2023/09/06 00:36:29;;;;;;;4.40;2.60;;;;;;;23.56;40.32;101048.89;108021;1288;21988;-69
2023/09/06 00:38:56;;;;;;;4.60;2.40;;;;;;;23.53;40.07;101050.27;108062;1286;23089;-57
2023/09/06 00:41:23;;;;;;;5.10;3.00;;;;;;;23.51;39.99;101051.11;108043;1288;21990;-69
2023/09/06 00:43:49;;;;;;;5.40;2.60;;;;;;;23.50;40.43;101049.23;108017;1288;23657;-70
2023/09/06 00:46:15;;;;;;;5.20;2.50;;;;;;;23.47;40.31;101049.71;108033;1286;23643;-69
2023/09/06 00:48:40;;;;;;;5.70;2.90;;;;;;;23.46;40.28;101052.67;107958;1289;22000;-69
2023/09/06 00:51:07;;;;;;;5.60;2.40;;;;;;;23.45;40.14;101055.36;107805;1289;21990;-69
2023/09/06 00:53:32;;;;;;;6.50;3.00;;;;;;;23.46;40.22;101056.21;107859;1289;24052;-70
2023/09/06 00:55:59;;;;;;;4.60;2.90;;;;;;;23.49;40.38;101057.16;107789;1289;23145;-57
2023/09/06 00:58:26;;;;;;;5.20;2.50;;;;;;;23.46;40.46;101058.55;107837;1288;21990;-58
2023/09/06 01:00:52;;;;;;;5.20;2.70;;;;;;;23.41;40.38;101060.60;107725;1288;21994;-58
2023/09/06 01:03:17;;;;;;;5.60;2.40;;;;;;;23.40;40.34;101056.77;108035;1283;21994;-70
2023/09/06 01:05:49;;;;;;;6.40;2.80;;;;;;;23.39;40.28;101060.59;108073;1288;23058;-68
2023/09/06 01:08:20;;;;;;;4.60;2.80;;;;;;;23.36;40.47;101061.64;108063;1288;21989;-58
2023/09/06 01:10:45;;;;;;;5.40;2.70;;;;;;;23.33;40.58;101065.89;108023;1288;22002;-69
2023/09/06 01:13:11;;;;;;;7.10;2.80;;;;;;;23.30;40.66;101060.35;108046;1285;21977;-59
2023/09/06 01:15:41;;;;;;;8.00;2.90;;;;;;;23.26;40.71;101059.66;108016;1283;21988;-57
2023/09/06 01:18:07;;;;;;;;;;;;;;;23.26;40.64;101056.61;107992;1288;21971;-69
2023/09/06 01:20:33;;;;;;;4.60;2.30;;;;;;;23.26;40.88;101058.07;108034;1288;22031;-58
2023/09/06 01:23:34;;;;;;;7.40;2.60;;;;;;;23.23;40.82;101058.55;107916;1288;21994;-58
2023/09/06 01:26:00;;;;;;;6.70;2.60;;;;;;;23.20;40.84;101057.27;107776;1289;21999;-69
2023/09/06 01:28:27;;;;;;;7.00;2.30;;;;;;;23.18;40.83;101057.74;107963;1289;21989;-69
2023/09/06 01:30:54;;;;;;;6.40;2.90;;;;;;;23.16;40.91;101059.96;107963;1288;23238;-60
2023/09/06 01:33:20;;;;;;;4.40;2.70;;;;;;;23.14;40.79;101054.36;108081;1288;21989;-71
2023/09/06 01:35:45;;;;;;;4.80;2.70;;;;;;;23.14;40.92;101052.59;108031;1288;22002;-59
2023/09/06 01:38:11;;;;;;;4.40;2.70;;;;;;;23.13;41.00;101053.73;108038;1284;21999;-69
2023/09/06 01:40:37;;;;;;;5.10;2.70;;;;;;;23.12;40.92;101052.14;108028;1287;22030;-69
2023/09/06 01:43:03;;;;;;;4.40;2.80;;;;;;;23.12;40.90;101051.82;107910;1288;21994;-58
2023/09/06 01:45:29;;;;;;;5.50;2.90;;;;;;;23.10;41.10;101050.84;108089;1286;21996;-58
2023/09/06 01:47:55;;;;;;;6.90;3.00;;;;;;;23.08;41.09;101045.95;108047;1285;21999;-61
2023/09/06 01:50:20;;;;;;;3.90;2.40;;;;;;;23.04;41.09;101049.70;108052;1288;22017;-58
2023/09/06 01:52:47;;;;;;;7.70;3.30;;;;;;;23.04;41.08;101048.13;108043;1288;21998;-58
2023/09/06 01:55:12;;;;;;;5.40;2.90;;;;;;;23.03;41.07;101049.05;108087;1287;22530;-65
2023/09/06 01:57:38;;;;;;;5.70;3.00;;;;;;;23.02;41.32;101050.86;108048;1281;21989;-70
2023/09/06 02:02:50;;;;;;;7.20;2.70;;;;;;;23.01;41.28;101048.10;108008;1284;21989;-70
2023/09/06 02:05:16;;;;;;;4.20;2.60;;;;;;;23.02;41.38;101051.27;108050;1286;21987;-58
2023/09/06 02:07:43;;;;;;;9.60;3.20;;;;;;;23.01;41.23;101050.77;108040;1288;22029;-58
2023/09/06 02:10:09;;;;;;;6.00;3.60;;;;;;;23.01;41.52;101046.84;108095;1288;22001;-69
2023/09/06 02:12:36;;;;;;;5.30;3.10;;;;;;;22.98;41.48;101042.52;107985;1287;23671;-70
2023/09/06 02:15:07;;;;;;;5.60;2.70;;;;;;;22.95;41.63;101045.55;108037;1288;21990;-58
2023/09/06 02:17:33;;;;;;;5.60;3.10;;;;;;;22.92;41.64;101046.98;108050;1286;22002;-57
2023/09/06 02:20:12;;;;;;;5.20;2.60;;;;;;;22.89;41.63;101044.82;108004;1288;21995;-71
2023/09/06 02:22:39;;;;;;;5.20;2.50;;;;;;;22.86;41.66;101042.42;108000;1288;21990;-70
2023/09/06 02:25:07;;;;;;;8.90;3.10;;;;;;;22.86;41.81;101045.13;108069;1284;22760;-70
2023/09/06 02:27:33;;;;;;;6.50;3.40;;;;;;;22.85;41.95;101044.98;108052;1288;21993;-57
2023/09/06 02:29:59;;;;;;;5.00;3.00;;;;;;;22.84;41.92;101044.52;107997;1288;21991;-58
2023/09/06 02:32:26;;;;;;;8.10;3.50;;;;;;;22.84;41.79;101046.30;108028;1288;22187;-71
2023/09/06 02:34:52;;;;;;;7.80;2.50;;;;;;;22.84;41.85;101043.99;107862;1288;293594;-70
2023/09/06 02:37:17;;;;;;;6.80;3.20;;;;;;;22.82;41.95;101044.65;108031;1288;21997;-58
2023/09/06 02:39:43;;;;;;;6.20;3.10;;;;;;;22.80;41.86;101047.06;108088;1288;22000;-57
2023/09/06 02:42:09;;;;;;;6.30;3.10;;;;;;;22.78;42.19;101049.29;107932;1287;22028;-71
2023/09/06 02:44:34;;;;;;;4.00;2.50;;;;;;;22.77;42.15;101049.02;107992;1288;23645;-71
2023/09/06 02:47:03;;;;;;;6.20;3.40;;;;;;;22.77;42.20;101049.89;107989;1283;24337;-58
2023/09/06 02:49:29;;;;;;;4.70;2.90;;;;;;;22.77;42.19;101052.21;108002;1287;22044;-58
2023/09/06 02:51:56;;;;;;;5.60;2.80;;;;;;;22.77;42.27;101057.40;107993;1287;21993;-71
2023/09/06 02:54:22;;;;;;;7.30;2.90;;;;;;;22.75;42.16;101056.80;108001;1286;21988;-58
2023/09/06 02:56:48;;;;;;;5.30;3.00;;;;;;;22.75;42.12;101057.33;107997;1288;22024;-71
2023/09/06 02:59:15;;;;;;;9.60;2.80;;;;;;;22.76;42.18;101056.92;108013;1288;22001;-58
2023/09/06 03:01:44;;;;;;;6.40;3.10;;;;;;;22.76;42.26;101060.20;107997;1284;23613;-58
2023/09/06 03:04:13;;;;;;;6.60;3.00;;;;;;;22.74;42.38;101061.14;108067;1280;21997;-58
2023/09/06 03:06:43;;;;;;;6.50;3.00;;;;;;;22.71;42.35;101062.00;108083;1277;21996;-70
2023/09/06 03:09:12;;;;;;;6.00;3.20;;;;;;;22.70;42.39;101063.52;108026;1288;21988;-70
2023/09/06 03:11:38;;;;;;;9.10;3.00;;;;;;;22.68;42.55;101063.08;108032;1288;22009;-70
2023/09/06 03:14:04;;;;;;;4.90;3.10;;;;;;;22.65;42.57;101065.52;107984;1288;22000;-58
2023/09/06 03:16:38;;;;;;;7.20;3.30;;;;;;;22.64;42.41;101063.83;108094;1280;21992;-58
2023/09/06 03:19:09;;;;;;;7.60;3.40;;;;;;;22.63;42.56;101067.46;108030;1287;21997;-69
2023/09/06 03:21:37;;;;;;;7.60;3.10;;;;;;;22.61;42.68;101069.90;108111;1288;21997;-70
2023/09/06 03:24:11;;;;;;;12.00;3.30;;;;;;;22.60;42.70;101074.39;108162;1288;23718;-58
2023/09/06 03:26:43;;;;;;;6.10;3.10;;;;;;;22.58;42.68;101077.69;108104;1288;21988;-70
2023/09/06 03:29:10;;;;;;;8.10;3.80;;;;;;;22.58;42.64;101079.67;108079;1288;21984;-70
2023/09/06 03:31:42;;;;;;;14.40;3.70;;;;;;;22.60;42.64;101081.19;108124;1288;21998;-71
2023/09/06 03:34:13;;;;;;;9.00;3.10;;;;;;;22.60;42.73;101079.07;108151;1288;21989;-59
2023/09/06 03:36:40;;;;;;;7.20;3.10;;;;;;;22.57;42.78;101085.61;108116;1283;21996;-70
2023/09/06 03:39:12;;;;;;;8.10;3.40;;;;;;;22.56;42.76;101088.34;108087;1288;22002;-57
2023/09/06 03:41:40;;;;;;;6.20;3.20;;;;;;;22.54;42.88;101088.80;108154;1286;23638;-59
2023/09/06 03:44:06;;;;;;;5.70;3.00;;;;;;;22.55;42.86;101094.31;108106;1288;21976;-58
2023/09/06 03:46:34;;;;;;;5.60;2.80;;;;;;;22.56;42.83;101097.45;108094;1288;21994;-71
2023/09/06 03:49:05;;;;;;;6.90;2.80;;;;;;;22.57;42.92;101099.95;108088;1288;23720;-70
2023/09/06 03:51:32;;;;;;;6.10;2.70;;;;;;;22.55;42.98;101101.44;107763;1283;22009;-58
2023/09/06 03:54:00;;;;;;;5.80;3.20;;;;;;;22.54;43.07;101103.29;107762;1284;22000;-59
2023/09/06 03:56:27;;;;;;;8.60;3.40;;;;;;;22.56;43.03;101106.60;108215;1289;22106;-71
2023/09/06 03:58:54;;;;;;;6.10;3.40;;;;;;;22.57;43.06;101106.90;107926;1289;21979;-61
2023/09/06 04:01:19;;;;;;;18.20;4.10;;;;;;;22.59;43.15;101109.85;107861;1289;22008;-69
2023/09/06 04:03:47;;;;;;;6.50;3.30;;;;;;;22.61;43.18;101109.58;107843;1280;21991;-69
2023/09/06 04:06:13;;;;;;;11.60;4.30;;;;;;;22.64;43.18;101106.73;107822;1280;22004;-70
2023/09/06 04:08:39;;;;;;;7.40;3.00;;;;;;;22.67;43.26;101111.05;107854;1289;21988;-72
2023/09/06 04:11:05;;;;;;;6.30;3.10;;;;;;;22.70;43.50;101112.71;107872;1287;21962;-60
2023/09/06 04:13:30;;;;;;;12.40;3.70;;;;;;;22.74;43.20;101109.44;107824;1289;21990;-70
2023/09/06 04:15:56;;;;;;;5.60;2.90;;;;;;;22.81;43.54;101105.17;107862;1287;21993;-57
2023/09/06 04:18:21;;;;;;;7.40;3.00;;;;;;;22.86;43.47;101107.55;107818;1289;21995;-71
2023/09/06 04:20:49;;;;;;;7.40;3.90;;;;;;;22.92;43.23;101107.09;107852;1288;21960;-67
2023/09/06 04:23:16;;;;;;;15.20;3.70;;;;;;;22.95;43.24;101106.90;108047;1284;21986;-57
2023/09/06 04:25:44;;;;;;;16.40;3.60;;;;;;;22.99;43.20;101108.30;108047;1288;21992;-70
2023/09/06 04:28:11;;;;;;;86.70;76.90;;;;;;;23.18;43.12;101106.59;108075;1279;22081;-70
2023/09/06 04:30:37;;;;;;;93.30;84.20;;;;;;;23.43;43.23;101106.70;108092;1288;21992;-57
2023/09/06 04:33:08;;;;;;;20.40;16.70;;;;;;;23.65;42.92;101105.70;108039;1288;22001;-70
2023/09/06 04:35:48;;;;;;;9.50;5.80;;;;;;;23.79;42.79;101106.17;108036;1283;24385;-68
2023/09/06 04:38:15;;;;;;;11.20;4.40;;;;;;;23.78;42.71;101110.02;108017;1287;21997;-69
2023/09/06 04:40:43;;;;;;;8.50;3.90;;;;;;;23.73;42.49;101106.53;108029;1288;21992;-69
2023/09/06 04:43:09;;;;;;;9.00;4.30;;;;;;;23.69;42.51;101106.70;108103;1279;22915;-57
2023/09/06 04:45:38;;;;;;;9.60;4.90;;;;;;;23.72;42.50;101109.61;108038;1276;22051;-57
2023/09/06 04:48:08;;;;;;;6.50;3.80;;;;;;;23.73;42.66;101110.23;108080;1282;23776;-69
2023/09/06 04:50:37;;;;;;;7.70;3.30;;;;;;;23.78;42.50;101111.61;108099;1288;23041;-57
2023/09/06 04:53:04;;;;;;;8.70;4.00;;;;;;;23.82;42.41;101114.62;108073;1283;22010;-67
2023/09/06 04:55:35;;;;;;;7.40;3.10;;;;;;;23.91;42.43;101111.39;108043;1288;21955;-58
2023/09/06 04:58:04;;;;;;;9.20;3.60;;;;;;;24.02;42.35;101108.10;108086;1283;22036;-58
2023/09/06 05:00:38;;;;;;;10.60;3.10;;;;;;;24.09;42.13;101109.34;107906;1280;22027;-58
2023/09/06 05:03:08;;;;;;;6.90;2.80;;;;;;;24.14;42.24;101110.33;107883;1284;22029;-58
2023/09/06 05:05:35;;;;;;;8.10;3.70;;;;;;;24.18;42.10;101109.02;107826;1289;21994;-71
2023/09/06 05:08:01;;;;;;;9.50;3.00;;;;;;;24.22;42.14;101107.52;107928;1289;22000;-58
2023/09/06 05:10:26;;;;;;;7.60;2.60;;;;;;;24.26;42.11;101109.09;107799;1289;21995;-71
2023/09/06 05:12:52;;;;;;;6.90;3.30;;;;;;;24.32;41.97;101110.17;107773;1289;21993;-58
2023/09/06 05:15:18;;;;;;;5.80;2.90;;;;;;;24.39;42.11;101117.16;107786;1283;21959;-63
2023/09/06 05:17:43;;;;;;;5.90;2.80;;;;;;;24.45;42.01;101122.71;107803;1282;21992;-59
2023/09/06 05:20:27;;;;;;;6.00;2.90;;;;;;;24.50;41.92;101123.10;107841;1289;21993;-72
2023/09/06 05:22:59;;;;;;;5.60;3.30;;;;;;;24.59;41.73;101128.65;107797;1289;22003;-71
2023/09/06 05:25:24;;;;;;;6.00;3.30;;;;;;;24.68;41.67;101129.21;107765;1290;21999;-58
2023/09/06 05:27:53;;;;;;;6.00;3.30;;;;;;;24.76;41.83;101131.83;107744;1288;24072;-73
2023/09/06 05:30:19;;;;;;;5.30;2.90;;;;;;;24.86;41.75;101130.54;107787;1290;21992;-72
2023/09/06 05:32:45;;;;;;;5.80;3.20;;;;;;;24.96;41.53;101128.85;107758;1290;21993;-63
2023/09/06 05:35:11;;;;;;;8.10;3.20;;;;;;;25.08;41.59;101137.62;107749;1280;22033;-58
2023/09/06 05:37:37;;;;;;;6.70;3.30;;;;;;;25.21;41.56;101142.56;107727;1282;21995;-72
2023/09/06 05:40:04;;;;;;;7.30;3.40;;;;;;;25.35;41.49;101145.33;107821;1290;22001;-61
2023/09/06 05:42:31;;;;;;;6.80;2.70;;;;;;;25.49;41.31;101144.63;107784;1287;21999;-70
2023/09/06 05:44:56;;;;;;;5.80;2.80;;;;;;;25.63;41.27;101143.60;107806;1283;21997;-59
2023/09/06 05:47:22;;;;;;;5.20;2.80;;;;;;;25.75;41.17;101145.19;107745;1287;21999;-70
2023/09/06 05:49:51;;;;;;;6.80;3.00;;;;;;;25.85;41.03;101140.55;107866;1290;21997;-72
2023/09/06 05:52:17;;;;;;;18.30;3.90;;;;;;;25.99;40.99;101142.48;107932;1286;22056;-77
2023/09/06 05:54:43;;;;;;;6.70;3.00;;;;;;;26.17;40.88;101145.71;107940;1289;22207;-72
2023/09/06 05:57:09;;;;;;;6.20;3.40;;;;;;;26.36;40.81;101147.33;107840;1290;21992;-58
2023/09/06 05:59:36;;;;;;;8.20;3.30;;;;;;;26.53;40.71;101145.50;107830;1289;22001;-70
2023/09/06 06:02:02;;;;;;;5.90;2.80;;;;;;;26.70;40.49;101147.73;107720;1290;22032;-59
2023/09/06 06:04:28;;;;;;;6.70;3.30;;;;;;;26.89;40.43;101139.80;107835;1290;21976;-68
2023/09/06 06:06:54;;;;;;;6.70;3.00;;;;;;;27.09;40.30;101143.15;107765;1290;21992;-58
2023/09/06 06:09:21;;;;;;;5.40;3.10;;;;;;;27.26;40.08;101141.95;107709;1289;22121;-69
2023/09/06 06:11:47;;;;;;;4.70;2.90;;;;;;;27.43;39.94;101139.52;107739;1289;22010;-57
2023/09/06 06:14:13;;;;;;;7.40;3.00;;;;;;;27.59;39.60;101141.61;107791;1286;21996;-58
2023/09/06 06:16:39;;;;;;;5.10;2.90;;;;;;;27.76;39.55;101142.54;107750;1290;21996;-72
2023/09/06 06:19:04;;;;;;;6.00;2.80;;;;;;;27.97;39.71;101142.67;107714;1290;22032;-58
2023/09/06 06:21:31;;;;;;;9.00;3.80;;;;;;;28.15;39.45;101144.97;107775;1288;21999;-58
2023/09/06 06:23:57;;;;;;;8.10;3.70;;;;;;;28.30;39.10;101147.42;107835;1289;21991;-69
2023/09/06 06:26:23;;;;;;;6.00;3.50;;;;;;;28.42;39.01;101148.35;107881;1283;22005;-59
2023/09/06 06:28:49;;;;;;;6.20;3.20;;;;;;;28.55;38.96;101153.13;107827;1279;22042;-70
2023/09/06 06:31:15;;;;;;;6.40;3.30;;;;;;;28.71;38.98;101157.02;107894;1289;21994;-58
2023/09/06 06:33:40;;;;;;;5.70;3.20;;;;;;;28.90;38.77;101155.92;107761;1284;22002;-58
2023/09/06 06:36:06;;;;;;;9.30;4.30;;;;;;;29.06;38.48;101160.48;107814;1286;22002;-58
2023/09/06 06:38:32;;;;;;;7.40;3.20;;;;;;;29.18;38.48;101160.98;107830;1288;21991;-72
2023/09/06 06:40:57;;;;;;;5.90;2.80;;;;;;;29.29;38.19;101162.31;107893;1289;22013;-58
2023/09/06 06:43:23;;;;;;;4.60;2.70;;;;;;;29.41;38.06;101161.20;107857;1289;21986;-58
2023/09/06 06:45:52;;;;;;;6.80;3.50;;;;;;;29.54;38.21;101162.53;107827;1286;21997;-58
2023/09/06 06:48:18;;;;;;;4.70;3.20;;;;;;;29.66;37.99;101161.14;108037;1287;22000;-70
2023/09/06 06:50:43;;;;;;;7.20;3.20;;;;;;;29.81;37.73;101158.73;107993;1283;22010;-58
2023/09/06 06:53:09;;;;;;;6.00;3.10;;;;;;;29.90;37.77;101157.45;108026;1288;21997;-59
2023/09/06 06:55:34;;;;;;;9.60;3.60;;;;;;;30.00;37.59;101154.48;107990;1288;21987;-59
2023/09/06 06:58:00;;;;;;;6.20;3.10;;;;;;;30.07;37.40;101153.04;107940;1280;21994;-59
2023/09/06 07:00:26;;;;;;;7.70;2.90;;;;;;;30.12;37.43;101148.43;107822;1289;21995;-59
2023/09/06 07:02:51;;;;;;;10.40;3.30;;;;;;;30.26;37.43;101148.92;107809;1287;22027;-59
2023/09/06 07:05:17;;;;;;;5.40;4.00;;;;;;;30.43;37.09;101150.00;107819;1285;21999;-69
2023/09/06 07:07:43;;;;;;;8.80;3.00;;;;;;;30.54;36.79;101149.96;108049;1286;24386;-60
2023/09/06 07:10:09;;;;;;;6.50;3.00;;;;;;;30.62;36.78;101147.15;108015;1279;21999;-68
2023/09/06 07:12:35;;;;;;;5.30;3.20;;;;;;;30.70;36.62;101146.30;107984;1283;22290;-67
2023/09/06 07:15:02;;;;;;;6.70;3.10;;;;;;;30.79;36.67;101144.61;107936;1286;22028;-68
2023/09/06 07:17:27;;;;;;;7.60;3.20;;;;;;;30.91;36.71;101147.91;108006;1286;21990;-59
2023/09/06 07:19:54;;;;;;;8.30;3.40;;;;;;;31.07;36.65;101141.55;108001;1288;21997;-59
2023/09/06 07:22:19;;;;;;;6.30;3.10;;;;;;;31.20;36.25;101143.09;107982;1288;22459;-69
2023/09/06 07:24:45;;;;;;;25.50;5.30;;;;;;;31.30;35.91;101145.50;108391;1287;23645;-71
2023/09/06 07:27:11;;;;;;;12.60;3.20;;;;;;;31.40;35.90;101138.49;108018;1288;21987;-68
2023/09/06 07:29:36;;;;;;;5.60;3.60;;;;;;;31.52;35.96;101136.34;108024;1288;21967;-70
2023/09/06 07:32:03;;;;;;;9.90;3.50;;;;;;;31.67;35.84;101133.04;108035;1288;21994;-70
2023/09/06 07:34:30;;;;;;;5.00;3.00;;;;;;;31.83;35.66;101130.64;108044;1283;22000;-59
2023/09/06 07:36:56;;;;;;;5.70;3.10;;;;;;;32.01;35.57;101124.15;108069;1287;21992;-61
2023/09/06 07:39:21;;;;;;;4.70;3.00;;;;;;;32.12;35.07;101126.63;108028;1283;21992;-60
2023/09/06 07:41:48;;;;;;;4.90;2.80;;;;;;;32.13;35.05;101124.64;108024;1288;21992;-59
2023/09/06 07:44:14;;;;;;;5.30;2.50;;;;;;;32.18;35.01;101121.11;107951;1288;21989;-69
2023/09/06 07:46:41;;;;;;;3.70;2.50;;;;;;;32.27;35.16;101120.45;107996;1288;21990;-70
2023/09/06 07:49:06;;;;;;;4.60;2.30;;;;;;;32.47;35.19;101118.25;108014;1288;23631;-59
2023/09/06 07:51:32;;;;;;;5.70;2.40;;;;;;;32.70;34.62;101124.30;108000;1288;22000;-68
2023/09/06 07:53:58;;;;;;;5.80;2.80;;;;;;;32.83;34.61;101121.66;108026;1280;21988;-61
2023/09/06 07:56:24;;;;;;;4.60;2.80;;;;;;;32.88;34.07;101119.17;108055;1288;21995;-61
2023/09/06 07:58:49;;;;;;;4.50;2.40;;;;;;;32.86;34.06;101124.61;108042;1285;21996;-68
2023/09/06 08:01:15;;;;;;;4.10;2.40;;;;;;;32.88;34.13;101116.45;108006;1283;21980;-59
2023/09/06 08:03:41;;;;;;;4.00;2.90;;;;;;;33.09;34.42;101116.43;108007;1288;22503;-60
2023/09/06 08:06:07;;;;;;;3.90;2.40;;;;;;;33.37;34.17;101117.24;108024;1284;22063;-59
2023/09/06 08:08:33;;;;;;;5.00;2.60;;;;;;;33.62;34.04;101114.77;107993;1286;21983;-71
2023/09/06 08:10:58;;;;;;;6.10;2.80;;;;;;;33.87;33.62;101117.27;108047;1288;22001;-69
2023/09/06 08:13:24;;;;;;;5.20;2.60;;;;;;;33.91;33.30;101117.92;107645;1288;23628;-69
2023/09/06 08:15:50;;;;;;;3.80;2.30;;;;;;;33.91;33.41;101113.00;108044;1280;23746;-69
2023/09/06 08:18:15;;;;;;;6.70;2.70;;;;;;;34.00;33.39;101106.27;107730;1286;21993;-69
2023/09/06 08:20:41;;;;;;;5.80;2.50;;;;;;;34.24;33.42;101106.98;107985;1288;22002;-68
2023/09/06 08:23:07;;;;;;;16.40;2.80;;;;;;;34.42;32.91;101104.88;107995;1283;21995;-59
2023/09/06 08:25:33;;;;;;;4.90;2.10;;;;;;;34.46;32.71;101106.26;108029;1283;21994;-59
2023/09/06 08:27:59;;;;;;;3.40;2.90;;;;;;;34.56;32.72;101100.63;108009;1288;22008;-69
2023/09/06 08:30:24;;;;;;;6.50;2.70;;;;;;;34.69;32.44;101105.88;108007;1282;21993;-68
2023/09/06 08:32:51;;;;;;;3.80;2.70;;;;;;;34.70;32.21;101104.90;108015;1288;22006;-68
2023/09/06 08:35:17;;;;;;;4.50;3.10;;;;;;;34.66;32.07;101109.11;108071;1284;22052;-60
2023/09/06 08:37:45;;;;;;;6.40;3.40;;;;;;;34.66;32.21;101104.33;107974;1287;21991;-59
2023/09/06 08:40:11;;;;;;;4.90;2.80;;;;;;;34.76;32.49;101101.31;109912;1288;21790;-60
2023/09/06 08:42:38;;;;;;;6.20;3.30;;;;;;;35.03;32.48;101104.61;108004;1288;21997;-60
2023/09/06 08:45:05;;;;;;;4.80;2.70;;;;;;;35.32;32.28;101105.91;107986;1279;21992;-59
2023/09/06 08:47:33;;;;;;;5.60;2.90;;;;;;;35.57;31.95;101101.96;108024;1288;21990;-69
2023/09/06 08:49:58;;;;;;;4.00;2.60;;;;;;;35.81;32.04;101094.77;107682;1288;22069;-61
2023/09/06 08:52:24;;;;;;;4.20;2.70;;;;;;;36.16;31.87;101097.75;107647;1288;22051;-60
2023/09/06 08:54:50;;;;;;;6.60;3.50;;;;;;;36.43;31.17;101102.52;107666;1286;22004;-60
2023/09/06 08:57:17;;;;;;;7.40;3.10;;;;;;;36.42;31.06;101102.11;108038;1286;22012;-60
2023/09/06 08:59:43;;;;;;;5.50;3.30;;;;;;;36.44;31.12;101090.48;107834;1286;22050;-59
2023/09/06 09:02:12;;;;;;;5.30;3.30;;;;;;;36.59;31.17;101094.20;107853;1286;21988;-69
2023/09/06 09:04:41;;;;;;;7.00;3.80;;;;;;;36.75;31.00;101093.48;107890;1288;22456;-60
2023/09/06 09:07:11;;;;;;;6.20;3.40;;;;;;;36.99;30.90;101094.96;107997;1283;22002;-69
2023/09/06 09:09:55;;;;;;;7.80;3.40;;;;;;;37.18;30.36;101095.34;108029;1286;21980;-68
2023/09/06 09:12:31;;;;;;;4.10;2.90;;;;;;;37.25;30.53;101096.26;108004;1279;22754;-69
2023/09/06 09:14:57;;;;;;;4.20;3.00;;;;;;;37.47;30.43;101092.62;108020;1282;21987;-60
2023/09/06 09:17:24;;;;;;;4.20;2.60;;;;;;;37.75;30.15;101091.34;107996;1288;21986;-71
2023/09/06 09:19:59;;;;;;;6.90;3.00;;;;;;;38.05;30.10;101092.84;108001;1288;23025;-68
2023/09/06 09:22:28;;;;;;;7.70;3.30;;;;;;;38.33;29.80;101097.38;108044;1286;23210;-69
2023/09/06 09:25:03;;;;;;;4.30;3.30;;;;;;;38.37;29.17;101101.15;108054;1283;22009;-60
2023/09/06 09:27:29;;;;;;;4.40;3.40;;;;;;;38.14;29.11;101098.55;108024;1288;21987;-69
2023/09/06 09:29:55;;;;;;;5.00;3.40;;;;;;;38.07;29.37;101100.83;108011;1288;21994;-59
2023/09/06 09:32:22;;;;;;;3.70;3.30;;;;;;;38.17;29.46;101094.32;108079;1288;23787;-59
2023/09/06 09:34:48;;;;;;;4.70;3.30;;;;;;;38.42;29.41;101093.44;108009;1288;21994;-59
2023/09/06 09:37:13;;;;;;;4.70;3.20;;;;;;;38.71;29.18;101093.58;107950;1288;21997;-68
2023/09/06 09:39:39;;;;;;;7.50;3.60;;;;;;;38.99;28.98;101094.90;107941;1283;22000;-68
2023/09/06 09:42:05;;;;;;;3.80;3.30;;;;;;;39.07;28.28;101096.02;107977;1288;22010;-60
2023/09/06 09:44:31;;;;;;;6.50;3.70;;;;;;;38.95;28.33;101091.89;107975;1280;21967;-68
2023/09/06 09:46:57;;;;;;;4.70;3.20;;;;;;;39.04;28.19;101092.52;107988;1286;22004;-69
2023/09/06 09:49:23;;;;;;;5.60;3.90;;;;;;;39.03;27.89;101095.64;107984;1288;21998;-71
2023/09/06 09:51:50;;;;;;;5.10;3.60;;;;;;;38.84;27.79;101101.16;107996;1288;22000;-69
2023/09/06 09:54:16;;;;;;;5.20;3.50;;;;;;;38.64;27.71;101102.48;108013;1286;23655;-60
2023/09/06 09:56:44;;;;;;;4.90;3.60;;;;;;;38.45;27.74;101095.29;108035;1288;22000;-59
2023/09/06 09:59:09;;;;;;;5.60;3.60;;;;;;;38.28;27.62;101096.71;107709;1279;21992;-60
2023/09/06 10:01:35;;;;;;;6.80;4.20;;;;;;;38.08;27.70;101093.90;107666;1286;21998;-69
2023/09/06 10:04:07;;;;;;;6.30;3.60;;;;;;;38.06;27.79;101093.66;107849;1289;21997;-60
2023/09/06 10:06:32;;;;;;;4.90;3.30;;;;;;;38.22;28.07;101090.23;107790;1288;22000;-60
2023/09/06 10:08:59;;;;;;;6.10;3.60;;;;;;;38.62;27.97;101090.47;107994;1283;22012;-70
2023/09/06 10:11:25;;;;;;;6.10;3.60;;;;;;;39.09;27.94;101082.68;108067;1279;22003;-68
2023/09/06 10:13:52;;;;;;;9.20;3.60;;;;;;;39.50;27.52;101085.55;108046;1283;21993;-68
2023/09/06 10:16:19;;;;;;;7.30;3.80;;;;;;;39.72;27.06;101080.38;107917;1286;22015;-68
2023/09/06 10:18:44;;;;;;;6.50;3.80;;;;;;;39.79;26.86;101076.61;108576;1288;22019;-69
2023/09/06 10:21:10;;;;;;;11.20;3.70;;;;;;;39.79;26.25;101075.92;107987;1284;21990;-66
2023/09/06 10:23:42;;;;;;;9.40;4.00;;;;;;;39.55;26.28;101079.63;108326;1286;21992;-59
2023/09/06 10:26:08;;;;;;;5.40;4.00;;;;;;;39.19;26.56;101080.91;107983;1288;22083;-59
2023/09/06 10:28:34;;;;;;;8.00;3.60;;;;;;;38.90;26.56;101089.30;107998;1288;21993;-59
2023/09/06 10:31:10;;;;;;;6.30;3.80;;;;;;;38.56;26.56;101088.77;107993;1279;21995;-60
2023/09/06 10:33:35;;;;;;;6.40;3.50;;;;;;;38.28;26.75;101083.87;107982;1288;22002;-59
2023/09/06 10:36:27;;;;;;;6.50;3.40;;;;;;;38.21;26.97;101089.83;107998;1283;22006;-60
2023/09/06 10:38:55;;;;;;;4.40;3.50;;;;;;;38.20;26.73;101094.13;107966;1288;22462;-59
2023/09/06 10:41:21;;;;;;;4.50;3.50;;;;;;;38.07;26.78;101090.98;107979;1288;23409;-60
2023/09/06 10:44:00;;;;;;;7.10;3.80;;;;;;;37.89;26.80;101088.12;107913;1282;22001;-59
2023/09/06 10:46:30;;;;;;;5.90;3.60;;;;;;;37.81;26.90;101088.56;107850;1286;21996;-60
2023/09/06 10:49:14;;;;;;;11.30;4.20;;;;;;;37.77;26.65;101086.59;107881;1289;21994;-60
2023/09/06 10:52:00;;;;;;;6.30;3.60;;;;;;;37.82;26.76;101086.31;107877;1289;22006;-59
2023/09/06 10:54:39;;;;;;;5.50;3.40;;;;;;;38.00;26.16;101083.91;107889;1283;21993;-60
2023/09/06 10:57:09;;;;;;;4.90;3.40;;;;;;;38.08;26.31;101081.45;107852;1289;22155;-60
2023/09/06 10:59:44;;;;;;;5.10;3.30;;;;;;;38.07;26.22;101073.94;107904;1289;21996;-60
2023/09/06 11:02:18;;;;;;;6.80;3.60;;;;;;;37.97;26.15;101070.73;107882;1289;21997;-62
2023/09/06 11:04:44;;;;;;;9.70;4.10;;;;;;;37.91;26.41;101074.13;107866;1289;21990;-61
2023/09/06 11:07:10;;;;;;;6.60;3.20;;;;;;;38.07;26.65;101068.27;107847;1289;21979;-60
2023/09/06 11:09:43;;;;;;;5.30;3.00;;;;;;;38.44;26.77;101068.48;107884;1286;22451;-60
2023/09/06 11:12:11;;;;;;;7.70;3.60;;;;;;;38.89;26.51;101067.54;107780;1289;23735;-60
2023/09/06 11:14:37;;;;;;;8.10;3.40;;;;;;;39.33;26.41;101059.75;107951;1289;22473;-69
2023/09/06 11:17:03;;;;;;;10.10;4.00;;;;;;;39.78;26.00;101057.48;107888;1289;21993;-60
2023/09/06 11:19:29;;;;;;;5.90;3.20;;;;;;;40.09;25.77;101057.92;107937;1279;21995;-59
2023/09/06 11:22:08;;;;;;;7.10;3.50;;;;;;;40.02;25.16;101056.11;107860;1283;22064;-69